Time;durP1;ratioP1;P1;durP2;ratioP2;P2;SDS_P1;SDS_P2;PMS_P1;PMS_P2;Temp;Humidity;BMP_temperature;BMP_pressure;BME280_temperature;BME280_humidity;BME280_pressure;Samples;Min_cycle;Max_cycle;Signal;HPM_P1;HPM_P2
2022/04/26 03:36:30;;;;;;;11.90;9.98;;;;;;;;;;5116214;28;20325;-83
2022/04/26 03:38:57;;;;;;;11.73;10.52;;;;;;;;;;5115668;28;20687;-82
2022/04/26 03:41:24;;;;;;;12.98;10.43;;;;;;;;;;5116237;28;20203;-84
2022/04/26 03:43:51;;;;;;;12.05;10.82;;;;;;;;;;5115666;28;20215;-82
2022/04/26 03:46:19;;;;;;;10.43;9.43;;;;;;;;;;5115828;28;20668;-82
2022/04/26 03:48:48;;;;;;;11.65;10.20;;;;;;;;;;5115717;28;20210;-82
2022/04/26 03:51:15;;;;;;;12.65;10.43;;;;;;;;;;5115866;28;20211;-82
2022/04/26 03:53:42;;;;;;;11.82;10.57;;;;;;;;;;5115309;28;20219;-82
2022/04/26 03:56:10;;;;;;;12.77;10.38;;;;;;;;;;5115753;28;20223;-83
2022/04/26 03:58:37;;;;;;;11.07;9.98;;;;;;;;;;5115821;28;20196;-83
2022/04/26 04:01:04;;;;;;;11.60;10.38;;;;;;;;;;5115899;28;20605;-83
2022/04/26 04:03:32;;;;;;;13.95;10.90;;;;;;;;;;5114994;27;20211;-83
2022/04/26 04:06:01;;;;;;;14.50;11.52;;;;;;;;;;5116028;28;20249;-83
2022/04/26 04:08:28;;;;;;;11.57;10.40;;;;;;;;;;5114756;28;20254;-84
2022/04/26 04:10:55;;;;;;;13.48;12.07;;;;;;;;;;5115577;27;20199;-82
2022/04/26 04:13:23;;;;;;;12.80;11.45;;;;;;;;;;5095030;28;20204;-83
2022/04/26 04:15:50;;;;;;;12.98;10.88;;;;;;;;;;5100709;28;20244;-84
2022/04/26 04:21:03;;;;;;;12.43;11.13;;;;;;;;;;5105171;28;20247;-85
2022/04/26 04:23:31;;;;;;;14.38;12.80;;;;;;;;;;5104457;28;20210;-83
2022/04/26 04:25:58;;;;;;;13.80;12.30;;;;;;;;;;5105008;28;20208;-84
2022/04/26 04:28:25;;;;;;;14.60;13.10;;;;;;;;;;5104411;28;20200;-84
2022/04/26 04:30:53;;;;;;;13.43;11.95;;;;;;;;;;5105371;28;20676;-84
2022/04/26 04:33:20;;;;;;;11.80;10.60;;;;;;;;;;5103472;28;20707;-83
2022/04/26 04:35:47;;;;;;;12.15;10.23;;;;;;;;;;5104849;28;20227;-84
2022/04/26 04:38:16;;;;;;;13.10;11.70;;;;;;;;;;5104337;28;20283;-84
2022/04/26 04:40:43;;;;;;;13.73;12.32;;;;;;;;;;5104813;28;20200;-84
2022/04/26 04:43:12;;;;;;;15.18;12.00;;;;;;;;;;5122505;28;20203;-83
2022/04/26 04:45:39;;;;;;;12.15;10.60;;;;;;;;;;5127999;28;20224;-83
2022/04/26 04:48:07;;;;;;;12.88;11.32;;;;;;;;;;5127243;28;20571;-83
2022/04/26 04:50:35;;;;;;;11.45;10.30;;;;;;;;;;5127111;28;20646;-83
2022/04/26 04:53:03;;;;;;;11.20;10.10;;;;;;;;;;5126333;28;20199;-82
2022/04/26 04:55:31;;;;;;;10.30;9.20;;;;;;;;;;5126377;28;20253;-84
2022/04/26 04:57:59;;;;;;;10.15;9.00;;;;;;;;;;5126287;28;20203;-83
2022/04/26 05:00:26;;;;;;;9.85;8.85;;;;;;;;;;5125432;28;20239;-83
2022/04/26 05:02:53;;;;;;;11.00;9.73;;;;;;;;;;5124093;28;20199;-83
2022/04/26 05:05:21;;;;;;;9.82;8.82;;;;;;;;;;5125555;28;20219;-85
2022/04/26 05:07:50;;;;;;;11.15;9.93;;;;;;;;;;5123142;28;20206;-82
2022/04/26 05:10:17;;;;;;;11.27;10.15;;;;;;;;;;5125642;28;20624;-83
2022/04/26 05:12:46;;;;;;;10.93;9.82;;;;;;;;;;5108795;28;20211;-84
2022/04/26 05:15:14;;;;;;;13.95;12.07;;;;;;;;;;5100505;28;20224;-84
2022/04/26 05:17:41;;;;;;;14.43;11.23;;;;;;;;;;5103998;28;20201;-84
2022/04/26 05:20:10;;;;;;;11.40;10.13;;;;;;;;;;5104293;28;20200;-84
2022/04/26 05:25:19;;;;;;;13.35;11.38;;;;;;;;;;5105016;28;20223;-83
2022/04/26 05:27:47;;;;;;;13.23;11.90;;;;;;;;;;5102119;28;20205;-83
2022/04/26 05:30:15;;;;;;;13.90;12.48;;;;;;;;;;5106639;28;20226;-84
2022/04/26 05:32:42;;;;;;;15.10;13.45;;;;;;;;;;5104483;28;20199;-83
2022/04/26 05:35:10;;;;;;;16.48;12.43;;;;;;;;;;5105604;28;20232;-83
2022/04/26 05:37:38;;;;;;;14.35;12.82;;;;;;;;;;5104455;28;20250;-79
2022/04/26 05:40:06;;;;;;;18.25;14.38;;;;;;;;;;5102313;28;20212;-79
2022/04/26 05:42:37;;;;;;;14.57;12.93;;;;;;;;;;5113726;28;20214;-81
2022/04/26 05:45:07;;;;;;;11.60;10.38;;;;;;;;;;5119650;28;20227;-79
2022/04/26 05:47:34;;;;;;;13.75;12.27;;;;;;;;;;5120181;28;20211;-80
2022/04/26 05:50:02;;;;;;;16.15;13.55;;;;;;;;;;5118240;28;20199;-80
2022/04/26 05:52:29;;;;;;;13.25;11.85;;;;;;;;;;5119286;28;20252;-80
2022/04/26 05:54:57;;;;;;;14.55;12.90;;;;;;;;;;5121218;28;20266;-80
2022/04/26 05:57:25;;;;;;;16.67;14.30;;;;;;;;;;5120366;28;20582;-80
2022/04/26 05:59:52;;;;;;;14.43;11.70;;;;;;;;;;5117943;28;20210;-79
2022/04/26 06:02:21;;;;;;;13.55;11.90;;;;;;;;;;5120460;28;20215;-80
2022/04/26 06:04:48;;;;;;;14.77;12.15;;;;;;;;;;5122600;28;20219;-80
2022/04/26 06:07:15;;;;;;;17.65;14.57;;;;;;;;;;5121889;28;20609;-80
2022/04/26 06:09:43;;;;;;;15.70;13.93;;;;;;;;;;5112938;28;20664;-81
2022/04/26 06:12:10;;;;;;;16.05;14.35;;;;;;;;;;5115046;28;20200;-80
2022/04/26 06:14:38;;;;;;;15.93;14.20;;;;;;;;;;5113234;28;20211;-81
2022/04/26 06:17:05;;;;;;;18.85;15.75;;;;;;;;;;5112735;28;20224;-81
2022/04/26 06:19:34;;;;;;;17.65;14.50;;;;;;;;;;5118140;28;20207;-80
2022/04/26 06:22:01;;;;;;;16.38;14.13;;;;;;;;;;5118557;28;20252;-81
2022/04/26 06:24:28;;;;;;;15.68;14.00;;;;;;;;;;5117786;28;20231;-81
2022/04/26 06:26:56;;;;;;;17.30;14.32;;;;;;;;;;5117487;28;20196;-81
2022/04/26 06:29:23;;;;;;;17.48;14.68;;;;;;;;;;5117701;28;20340;-81
2022/04/26 06:31:50;;;;;;;15.85;14.18;;;;;;;;;;5119194;28;20207;-80
2022/04/26 06:34:17;;;;;;;12.48;11.18;;;;;;;;;;5123170;28;20223;-80
2022/04/26 06:36:46;;;;;;;15.45;13.75;;;;;;;;;;5122315;28;20219;-80
2022/04/26 06:39:13;;;;;;;16.25;13.50;;;;;;;;;;5121877;28;20241;-80
2022/04/26 06:41:41;;;;;;;17.67;14.32;;;;;;;;;;5120874;28;20233;-80
2022/04/26 06:44:09;;;;;;;11.88;10.70;;;;;;;;;;5123149;28;20227;-80
2022/04/26 06:46:36;;;;;;;11.48;9.20;;;;;;;;;;5122550;28;20252;-80
2022/04/26 06:49:05;;;;;;;14.40;12.73;;;;;;;;;;5121576;28;20227;-80
2022/04/26 06:51:33;;;;;;;15.60;13.50;;;;;;;;;;5122024;28;20268;-80
2022/04/26 06:54:01;;;;;;;18.23;16.33;;;;;;;;;;5121573;28;20259;-80
2022/04/26 06:56:29;;;;;;;15.68;14.00;;;;;;;;;;5119200;28;20219;-80
2022/04/26 06:58:57;;;;;;;17.02;14.65;;;;;;;;;;5119061;27;20211;-81
2022/04/26 07:01:24;;;;;;;16.05;14.45;;;;;;;;;;5119166;27;20210;-81
2022/04/26 07:03:51;;;;;;;16.80;14.35;;;;;;;;;;5114635;27;20220;-80
2022/04/26 07:06:18;;;;;;;14.68;13.07;;;;;;;;;;5120058;28;20203;-82
2022/04/26 07:08:46;;;;;;;13.90;12.48;;;;;;;;;;5120639;28;20223;-80
2022/04/26 07:11:15;;;;;;;14.70;13.18;;;;;;;;;;5120743;27;20218;-81
2022/04/26 07:13:42;;;;;;;17.98;13.55;;;;;;;;;;5120253;27;20234;-80
2022/04/26 07:16:10;;;;;;;12.18;11.02;;;;;;;;;;5120308;28;20210;-81
2022/04/26 07:18:37;;;;;;;14.13;11.55;;;;;;;;;;5119802;27;20827;-81
2022/04/26 07:21:04;;;;;;;16.45;13.70;;;;;;;;;;5119302;28;20249;-80
2022/04/26 07:23:31;;;;;;;13.63;11.30;;;;;;;;;;5117548;28;20207;-80
2022/04/26 07:25:59;;;;;;;13.60;11.90;;;;;;;;;;5119171;28;20204;-80
2022/04/26 07:28:28;;;;;;;17.00;13.60;;;;;;;;;;5117539;28;20199;-81
2022/04/26 07:30:55;;;;;;;14.88;13.30;;;;;;;;;;5117650;28;20203;-81
2022/04/26 07:36:09;;;;;;;17.75;13.63;;;;;;;;;;5118542;28;20219;-80
2022/04/26 07:38:37;;;;;;;10.98;9.82;;;;;;;;;;5116598;28;20224;-81
2022/04/26 07:41:07;;;;;;;13.73;12.23;;;;;;;;;;5117945;28;20207;-81
2022/04/26 07:43:36;;;;;;;11.60;9.93;;;;;;;;;;5115594;28;20260;-80
2022/04/26 07:46:04;;;;;;;12.23;10.95;;;;;;;;;;5116874;28;20229;-81
2022/04/26 07:48:32;;;;;;;14.68;13.23;;;;;;;;;;5115336;28;20199;-81
2022/04/26 07:50:59;;;;;;;15.27;13.10;;;;;;;;;;5117731;28;20203;-80
2022/04/26 07:53:27;;;;;;;14.10;12.57;;;;;;;;;;5111732;28;20208;-81
2022/04/26 07:55:54;;;;;;;13.43;12.02;;;;;;;;;;5116968;28;20207;-81
2022/04/26 07:58:21;;;;;;;11.68;10.50;;;;;;;;;;5116577;27;20230;-82
2022/04/26 08:00:50;;;;;;;14.35;12.88;;;;;;;;;;5116606;27;20195;-81
2022/04/26 08:03:20;;;;;;;13.85;12.35;;;;;;;;;;5114971;28;20203;-81
2022/04/26 08:05:48;;;;;;;14.30;12.80;;;;;;;;;;5116213;28;20204;-80
2022/04/26 08:08:15;;;;;;;15.93;13.73;;;;;;;;;;5115663;28;20651;-82
2022/04/26 08:10:42;;;;;;;10.57;9.63;;;;;;;;;;5116931;28;20207;-81
2022/04/26 08:13:09;;;;;;;10.07;9.10;;;;;;;;;;5115522;28;20607;-81
2022/04/26 08:15:37;;;;;;;13.07;11.77;;;;;;;;;;5116669;28;20227;-81
2022/04/26 08:18:06;;;;;;;13.02;11.73;;;;;;;;;;5116886;28;20249;-82
2022/04/26 08:20:33;;;;;;;14.02;11.88;;;;;;;;;;5116943;28;20638;-82
2022/04/26 08:23:02;;;;;;;11.70;10.48;;;;;;;;;;5115555;27;20239;-83
2022/04/26 08:28:14;;;;;;;10.27;9.23;;;;;;;;;;5115710;28;20206;-82
2022/04/26 08:30:41;;;;;;;10.77;9.68;;;;;;;;;;5119088;28;20200;-81
2022/04/26 08:33:10;;;;;;;11.00;9.90;;;;;;;;;;5115723;28;20214;-81
2022/04/26 08:35:37;;;;;;;12.15;10.95;;;;;;;;;;5114420;28;20293;-81
2022/04/26 08:38:05;;;;;;;13.30;12.07;;;;;;;;;;5114883;28;20227;-82
2022/04/26 08:40:32;;;;;;;14.23;12.75;;;;;;;;;;5114539;28;20203;-82
2022/04/26 08:42:59;;;;;;;12.63;11.38;;;;;;;;;;5115109;28;20200;-82
2022/04/26 08:45:27;;;;;;;11.57;9.98;;;;;;;;;;5114760;28;20259;-82
2022/04/26 08:53:27;;;;;;;14.48;13.07;;;;;;;;;;5113500;28;20269;-82
2022/04/26 08:55:55;;;;;;;14.52;12.65;;;;;;;;;;5114525;28;20208;-83
2022/04/26 08:58:25;;;;;;;14.13;11.30;;;;;;;;;;5114411;28;20224;-82
2022/04/26 09:01:08;;;;;;;13.52;12.13;;;;;;;;;;5114257;28;20644;-82
2022/04/26 09:03:40;;;;;;;12.20;9.88;;;;;;;;;;5110895;28;20228;-83
2022/04/26 09:06:13;;;;;;;12.80;9.93;;;;;;;;;;5114327;28;20206;-82
2022/04/26 09:08:41;;;;;;;8.95;8.15;;;;;;;;;;5114015;28;20214;-83
2022/04/26 09:11:24;;;;;;;9.63;8.63;;;;;;;;;;5114910;28;20663;-82
2022/04/26 09:13:52;;;;;;;6.60;5.93;;;;;;;;;;5113710;28;20223;-82
2022/04/26 09:16:21;;;;;;;8.52;7.70;;;;;;;;;;5114297;28;20200;-82
2022/04/26 09:18:57;;;;;;;11.77;9.77;;;;;;;;;;5112381;28;20222;-82
2022/04/26 09:21:28;;;;;;;11.93;10.80;;;;;;;;;;5114804;28;20639;-82
2022/04/26 09:23:59;;;;;;;10.10;9.10;;;;;;;;;;5113415;28;20223;-82
2022/04/26 09:26:28;;;;;;;10.98;9.88;;;;;;;;;;5113863;28;20211;-81
2022/04/26 09:28:58;;;;;;;10.05;9.05;;;;;;;;;;5107506;28;20200;-83
2022/04/26 09:31:27;;;;;;;10.38;9.32;;;;;;;;;;5107384;28;20655;-82
2022/04/26 09:33:57;;;;;;;7.60;6.90;;;;;;;;;;5113601;28;21255;-81
2022/04/26 09:36:28;;;;;;;8.07;7.28;;;;;;;;;;5108660;28;20223;-82
2022/04/26 09:38:57;;;;;;;7.32;6.65;;;;;;;;;;5114024;28;20223;-82
2022/04/26 09:41:27;;;;;;;7.32;6.50;;;;;;;;;;5113638;28;20200;-82
2022/04/26 09:44:01;;;;;;;8.35;7.60;;;;;;;;;;5113635;28;20231;-82
2022/04/26 09:46:46;;;;;;;11.20;10.10;;;;;;;;;;5114127;28;20204;-82
2022/04/26 09:49:15;;;;;;;9.23;7.88;;;;;;;;;;5114233;28;20235;-82
2022/04/26 09:51:44;;;;;;;9.32;8.43;;;;;;;;;;5113142;28;20207;-82
2022/04/26 09:54:12;;;;;;;11.13;10.05;;;;;;;;;;5113347;28;20231;-82
2022/04/26 09:56:40;;;;;;;8.82;8.07;;;;;;;;;;5113899;28;20293;-82
2022/04/26 09:59:07;;;;;;;8.63;7.78;;;;;;;;;;5114103;28;20711;-82
2022/04/26 10:01:42;;;;;;;10.18;8.98;;;;;;;;;;5113350;28;20212;-81
2022/04/26 10:04:14;;;;;;;11.57;10.48;;;;;;;;;;5113708;28;20219;-81
2022/04/26 10:06:44;;;;;;;10.70;9.02;;;;;;;;;;5109578;28;20574;-81
2022/04/26 10:09:12;;;;;;;8.88;8.07;;;;;;;;;;5111948;28;20272;-81
2022/04/26 10:11:40;;;;;;;10.50;9.50;;;;;;;;;;5115293;28;20218;-81
2022/04/26 10:14:09;;;;;;;9.05;8.15;;;;;;;;;;5116315;28;20253;-82
2022/04/26 10:16:37;;;;;;;8.38;7.57;;;;;;;;;;5113801;28;20200;-81
2022/04/26 10:19:07;;;;;;;10.07;7.80;;;;;;;;;;5117315;28;20230;-82
2022/04/26 10:21:52;;;;;;;10.23;8.45;;;;;;;;;;5110799;28;20203;-81
2022/04/26 10:24:22;;;;;;;9.65;8.65;;;;;;;;;;5112404;28;20492;-81
2022/04/26 10:26:50;;;;;;;8.88;7.97;;;;;;;;;;5116987;28;20210;-82
2022/04/26 10:29:26;;;;;;;8.38;7.60;;;;;;;;;;5117756;28;20556;-82
2022/04/26 10:32:01;;;;;;;6.00;5.40;;;;;;;;;;5116299;28;20294;-82
2022/04/26 10:34:34;;;;;;;7.57;6.97;;;;;;;;;;5117155;28;20763;-82
2022/04/26 10:37:33;;;;;;;8.38;7.57;;;;;;;;;;5117003;28;20676;-82
2022/04/26 10:40:02;;;;;;;6.85;6.20;;;;;;;;;;5117620;28;20500;-81
2022/04/26 10:42:31;;;;;;;8.45;7.68;;;;;;;;;;5116383;28;20698;-82
2022/04/26 10:45:06;;;;;;;8.18;6.30;;;;;;;;;;5117048;28;20231;-82
2022/04/26 10:47:35;;;;;;;7.20;6.50;;;;;;;;;;5116989;28;20231;-81
2022/04/26 10:50:05;;;;;;;8.18;7.38;;;;;;;;;;5112896;28;20249;-82
2022/04/26 10:52:49;;;;;;;7.40;6.70;;;;;;;;;;5116506;28;20253;-81
2022/04/26 10:55:18;;;;;;;7.78;6.97;;;;;;;;;;5116592;28;20228;-81
2022/04/26 10:57:53;;;;;;;6.78;5.28;;;;;;;;;;5116850;28;20203;-81
2022/04/26 11:00:28;;;;;;;7.07;6.35;;;;;;;;;;5110236;28;20231;-81
2022/04/26 11:03:06;;;;;;;6.65;5.95;;;;;;;;;;5115749;28;20214;-81
2022/04/26 11:05:34;;;;;;;5.15;4.75;;;;;;;;;;5116149;28;20768;-81
2022/04/26 11:08:05;;;;;;;4.40;4.00;;;;;;;;;;5116773;28;20208;-82
2022/04/26 11:13:21;;;;;;;8.88;7.28;;;;;;;;;;5115898;28;20207;-82
2022/04/26 11:15:48;;;;;;;7.50;6.38;;;;;;;;;;5116795;28;20325;-82
2022/04/26 11:18:21;;;;;;;8.27;7.25;;;;;;;;;;5116459;28;20204;-82
2022/04/26 11:20:49;;;;;;;8.68;7.78;;;;;;;;;;5108636;28;20638;-81
2022/04/26 11:29:26;;;;;;;7.32;6.63;;;;;;;;;;5115455;28;20203;-82
2022/04/26 11:31:55;;;;;;;9.68;7.10;;;;;;;;;;5114705;28;20207;-82
2022/04/26 11:34:46;;;;;;;7.72;7.03;;;;;;;;;;5115737;28;20310;-82
2022/04/26 11:37:14;;;;;;;7.72;7.03;;;;;;;;;;5117373;28;20204;-81
2022/04/26 11:39:44;;;;;;;8.90;7.35;;;;;;;;;;5108662;28;20314;-81
2022/04/26 11:42:12;;;;;;;7.60;6.85;;;;;;;;;;5108084;28;20628;-81
2022/04/26 11:44:58;;;;;;;6.97;6.30;;;;;;;;;;5108719;28;20255;-81
2022/04/26 11:47:39;;;;;;;6.45;5.85;;;;;;;;;;5111517;28;20210;-81
2022/04/26 11:50:15;;;;;;;9.15;8.05;;;;;;;;;;5112113;28;20260;-81
2022/04/26 11:52:44;;;;;;;9.35;8.52;;;;;;;;;;5114643;28;20208;-82
2022/04/26 11:55:26;;;;;;;7.47;6.78;;;;;;;;;;5115285;28;20243;-84
2022/04/26 11:57:55;;;;;;;7.40;6.70;;;;;;;;;;5115066;28;20216;-82
2022/04/26 12:00:23;;;;;;;6.28;5.70;;;;;;;;;;5114888;27;20326;-84
2022/04/26 12:02:51;;;;;;;5.28;4.78;;;;;;;;;;5114823;28;20227;-83
2022/04/26 12:05:21;;;;;;;5.15;4.75;;;;;;;;;;5114756;28;20227;-84
2022/04/26 12:07:50;;;;;;;4.07;3.75;;;;;;;;;;5115274;28;20264;-83
2022/04/26 12:10:30;;;;;;;4.50;4.10;;;;;;;;;;5114227;27;20223;-83
2022/04/26 12:13:01;;;;;;;3.20;3.00;;;;;;;;;;5114982;28;20207;-83
2022/04/26 12:15:31;;;;;;;3.60;3.30;;;;;;;;;;5115015;28;20232;-83
2022/04/26 12:18:10;;;;;;;3.15;2.85;;;;;;;;;;5114696;27;20200;-82
2022/04/26 12:20:57;;;;;;;3.20;3.00;;;;;;;;;;5114481;28;20223;-82
2022/04/26 12:23:26;;;;;;;3.03;2.83;;;;;;;;;;5113914;28;20206;-82
2022/04/26 12:25:56;;;;;;;3.22;3.00;;;;;;;;;;5113011;22;20259;-81
2022/04/26 12:28:23;;;;;;;3.75;3.47;;;;;;;;;;5077656;28;20206;-80
2022/04/26 12:30:51;;;;;;;5.38;4.88;;;;;;;;;;5076582;28;20653;-81
2022/04/26 12:33:29;;;;;;;6.55;5.97;;;;;;;;;;5077037;28;20331;-81
2022/04/26 12:36:02;;;;;;;6.88;6.28;;;;;;;;;;5077530;28;20274;-81
2022/04/26 12:38:30;;;;;;;5.72;5.22;;;;;;;;;;5070814;28;20605;-81
2022/04/26 12:41:06;;;;;;;6.00;5.50;;;;;;;;;;5071924;28;20229;-81
2022/04/26 12:43:34;;;;;;;6.57;5.97;;;;;;;;;;5073987;28;20258;-81
2022/04/26 12:46:03;;;;;;;5.18;4.68;;;;;;;;;;5077755;28;20689;-80
2022/04/26 12:51:20;;;;;;;3.40;3.10;;;;;;;;;;5073832;28;20270;-82
2022/04/26 12:53:49;;;;;;;2.75;2.55;;;;;;;;;;5075153;28;20248;-81
2022/04/26 12:56:18;;;;;;;3.83;3.53;;;;;;;;;;5075166;28;20228;-81
2022/04/26 12:58:48;;;;;;;3.80;3.50;;;;;;;;;;5074352;28;20204;-81
2022/04/26 13:01:17;;;;;;;3.88;3.58;;;;;;;;;;5076123;28;20229;-82
2022/04/26 13:03:47;;;;;;;3.40;3.10;;;;;;;;;;5073480;28;20732;-81
2022/04/26 13:06:17;;;;;;;2.75;2.55;;;;;;;;;;5074004;28;20248;-82
2022/04/26 13:08:46;;;;;;;4.90;4.43;;;;;;;;;;5074900;28;20225;-81
2022/04/26 13:11:17;;;;;;;4.78;4.38;;;;;;;;;;5071587;28;20331;-82
2022/04/26 13:13:49;;;;;;;3.95;3.65;;;;;;;;;;5074945;28;20204;-82
2022/04/26 13:16:16;;;;;;;3.67;3.38;;;;;;;;;;5075400;28;20259;-82
2022/04/26 13:18:44;;;;;;;4.53;4.22;;;;;;;;;;5075118;28;20254;-80
2022/04/26 13:21:13;;;;;;;3.15;2.95;;;;;;;;;;5087142;28;20231;-81
2022/04/26 13:23:41;;;;;;;3.33;3.10;;;;;;;;;;5085703;28;20212;-80
2022/04/26 13:26:08;;;;;;;2.45;2.28;;;;;;;;;;5092168;28;20244;-80
2022/04/26 13:28:35;;;;;;;2.40;2.20;;;;;;;;;;5092769;28;20189;-81
2022/04/26 13:31:04;;;;;;;2.28;2.15;;;;;;;;;;5092101;28;20216;-81
2022/04/26 13:33:31;;;;;;;2.75;2.58;;;;;;;;;;5084467;28;20210;-80
2022/04/26 13:35:59;;;;;;;1.88;1.77;;;;;;;;;;5088508;28;20228;-83
2022/04/26 13:38:26;;;;;;;2.95;2.75;;;;;;;;;;5079702;28;20209;-83
2022/04/26 13:40:55;;;;;;;2.80;2.60;;;;;;;;;;5079283;28;20224;-82
2022/04/26 13:43:23;;;;;;;4.07;3.78;;;;;;;;;;5079507;28;20208;-83
2022/04/26 13:45:51;;;;;;;3.90;3.60;;;;;;;;;;5086470;28;20638;-82
2022/04/26 13:48:19;;;;;;;4.88;3.95;;;;;;;;;;5087414;28;20630;-81
2022/04/26 13:50:47;;;;;;;4.38;4.07;;;;;;;;;;5087710;28;20235;-82
2022/04/26 13:53:14;;;;;;;4.05;3.72;;;;;;;;;;5086286;28;20204;-83
2022/04/26 13:55:41;;;;;;;3.00;2.80;;;;;;;;;;5086471;28;20282;-82
2022/04/26 13:58:10;;;;;;;3.78;3.47;;;;;;;;;;5085871;28;20614;-82
2022/04/26 14:00:37;;;;;;;3.17;2.88;;;;;;;;;;5086561;28;20319;-83
2022/04/26 14:03:06;;;;;;;2.78;2.58;;;;;;;;;;5086372;28;20232;-82
2022/04/26 14:05:35;;;;;;;3.63;3.38;;;;;;;;;;5085769;28;20255;-82
2022/04/26 14:08:03;;;;;;;5.03;4.22;;;;;;;;;;5086024;28;20613;-82
2022/04/26 14:10:31;;;;;;;3.58;3.28;;;;;;;;;;5087518;28;20207;-83
2022/04/26 14:12:59;;;;;;;3.67;3.38;;;;;;;;;;5084867;28;20209;-81
2022/04/26 14:24:07;;;;;;;3.10;2.85;;;;;;;;;;4984668;28;20215;-83
2022/04/26 14:26:37;;;;;;;4.63;4.22;;;;;;;;;;5048507;28;20233;-81
2022/04/26 14:29:04;;;;;;;4.57;4.22;;;;;;;;;;5087033;28;20209;-82
2022/04/26 14:31:32;;;;;;;5.43;4.93;;;;;;;;;;5086520;28;20208;-79
2022/04/26 14:33:59;;;;;;;4.55;4.22;;;;;;;;;;5086919;28;20648;-82
2022/04/26 14:36:28;;;;;;;4.65;4.35;;;;;;;;;;5086219;28;20547;-82
2022/04/26 14:38:55;;;;;;;5.22;4.82;;;;;;;;;;5085979;28;20235;-81
2022/04/26 14:41:22;;;;;;;5.65;5.00;;;;;;;;;;5083172;28;20222;-83
2022/04/26 14:43:50;;;;;;;5.65;5.22;;;;;;;;;;5085458;28;20214;-81
2022/04/26 14:46:17;;;;;;;5.53;5.13;;;;;;;;;;5087244;28;20232;-81
2022/04/26 14:48:45;;;;;;;5.10;4.63;;;;;;;;;;5086440;28;20201;-82
2022/04/26 14:51:12;;;;;;;5.43;5.03;;;;;;;;;;5085758;28;20654;-81
2022/04/26 14:53:41;;;;;;;5.55;5.10;;;;;;;;;;5088619;28;20210;-81
2022/04/26 14:56:10;;;;;;;4.40;4.05;;;;;;;;;;5089701;28;20229;-81
2022/04/26 14:58:38;;;;;;;4.13;3.80;;;;;;;;;;5089631;28;20227;-82
2022/04/26 15:01:06;;;;;;;5.05;4.55;;;;;;;;;;5089607;28;20613;-82
2022/04/26 15:03:33;;;;;;;5.72;5.22;;;;;;;;;;5086763;28;20209;-82
2022/04/26 15:06:00;;;;;;;5.10;4.70;;;;;;;;;;5087270;28;20716;-82
2022/04/26 15:11:14;;;;;;;7.53;5.00;;;;;;;;;;5084423;28;20629;-82
2022/04/26 15:16:42;;;;;;;4.13;3.72;;;;;;;;;;5045527;28;20224;-82
2022/04/26 15:19:12;;;;;;;5.05;4.55;;;;;;;;;;5085364;28;20205;-81
2022/04/26 15:21:41;;;;;;;4.75;4.35;;;;;;;;;;5083973;28;20227;-79
2022/04/26 15:24:09;;;;;;;3.97;3.65;;;;;;;;;;5085136;28;20209;-80
2022/04/26 15:26:40;;;;;;;4.20;3.80;;;;;;;;;;5084584;28;20251;-80
2022/04/26 15:29:07;;;;;;;4.10;3.70;;;;;;;;;;5083763;28;20197;-79
2022/04/26 15:31:35;;;;;;;5.03;4.63;;;;;;;;;;5082932;28;20201;-80
2022/04/26 15:34:03;;;;;;;3.83;3.53;;;;;;;;;;5084337;28;20205;-79
2022/04/26 15:36:30;;;;;;;4.35;3.95;;;;;;;;;;5083230;28;20252;-79
2022/04/26 15:38:59;;;;;;;4.00;3.58;;;;;;;;;;5085167;28;20225;-80
2022/04/26 15:41:27;;;;;;;3.28;3.05;;;;;;;;;;5080810;28;20307;-81
2022/04/26 15:43:55;;;;;;;4.50;4.10;;;;;;;;;;5081507;28;20228;-80
2022/04/26 15:46:23;;;;;;;3.15;2.95;;;;;;;;;;5084382;28;20225;-80
2022/04/26 15:48:50;;;;;;;2.50;2.30;;;;;;;;;;5084661;28;20751;-79
2022/04/26 15:51:18;;;;;;;2.63;2.42;;;;;;;;;;5083788;28;20205;-80
2022/04/26 15:53:46;;;;;;;3.58;3.28;;;;;;;;;;5084250;28;20209;-80
2022/04/26 15:56:15;;;;;;;4.35;3.75;;;;;;;;;;5084187;28;20267;-80
2022/04/26 15:58:42;;;;;;;3.40;3.17;;;;;;;;;;5072678;28;20198;-80
2022/04/26 16:01:12;;;;;;;3.97;3.63;;;;;;;;;;5083473;28;20201;-80
2022/04/26 16:03:41;;;;;;;4.43;4.13;;;;;;;;;;5083463;28;20209;-79
2022/04/26 16:06:08;;;;;;;3.60;3.22;;;;;;;;;;5084075;28;20598;-79
2022/04/26 16:08:35;;;;;;;3.97;3.67;;;;;;;;;;5081454;28;20568;-79
2022/04/26 16:22:05;;;;;;;4.45;4.05;;;;;;;;;;5074929;28;20673;-81
2022/04/26 16:24:38;;;;;;;4.43;4.05;;;;;;;;;;5080673;28;20616;-82
2022/04/26 16:27:06;;;;;;;5.68;4.50;;;;;;;;;;5081425;28;20657;-83
2022/04/26 16:29:33;;;;;;;4.28;3.90;;;;;;;;;;5074733;28;20204;-80
2022/04/26 16:32:02;;;;;;;4.18;3.88;;;;;;;;;;5073458;28;20205;-80
2022/04/26 16:34:29;;;;;;;3.78;3.47;;;;;;;;;;5074629;28;20670;-81
2022/04/26 16:36:56;;;;;;;4.45;4.05;;;;;;;;;;5072187;28;20758;-81
2022/04/26 16:39:24;;;;;;;4.28;3.95;;;;;;;;;;5070251;28;20693;-80
2022/04/26 16:41:51;;;;;;;4.30;4.00;;;;;;;;;;5065347;28;20221;-81
2022/04/26 16:44:23;;;;;;;4.10;3.80;;;;;;;;;;5073436;28;20209;-81
2022/04/26 16:46:50;;;;;;;4.82;4.43;;;;;;;;;;5073876;28;20267;-81
2022/04/26 16:49:19;;;;;;;4.20;3.88;;;;;;;;;;5074068;28;20216;-80
2022/04/26 16:51:46;;;;;;;4.28;3.88;;;;;;;;;;5073496;28;20687;-81
2022/04/26 16:54:14;;;;;;;4.25;3.88;;;;;;;;;;5073687;28;20220;-79
2022/04/26 16:56:41;;;;;;;3.97;3.67;;;;;;;;;;5073504;28;20232;-80
2022/04/26 16:59:09;;;;;;;4.60;3.60;;;;;;;;;;5073958;28;20200;-80
2022/04/26 17:01:36;;;;;;;4.22;3.85;;;;;;;;;;5071365;28;20225;-80
2022/04/26 17:04:10;;;;;;;3.97;3.67;;;;;;;;;;5073165;28;20936;-80
2022/04/26 17:06:39;;;;;;;4.30;4.00;;;;;;;;;;5073025;28;20585;-80
2022/04/26 17:09:07;;;;;;;3.65;3.35;;;;;;;;;;5073405;28;20220;-81
2022/04/26 17:11:43;;;;;;;3.85;3.20;;;;;;;;;;5072765;28;20211;-80
2022/04/26 17:14:11;;;;;;;3.53;3.25;;;;;;;;;;5073121;28;20203;-79
2022/04/26 17:16:39;;;;;;;3.60;3.30;;;;;;;;;;5072604;28;20236;-79
2022/04/26 17:19:06;;;;;;;3.42;3.13;;;;;;;;;;5073608;28;20251;-79
2022/04/26 17:21:33;;;;;;;3.10;2.90;;;;;;;;;;5074055;28;20216;-79
2022/04/26 17:24:02;;;;;;;3.63;3.33;;;;;;;;;;5073022;28;20728;-79
2022/04/26 17:26:30;;;;;;;3.30;2.95;;;;;;;;;;5072870;28;20278;-78
2022/04/26 17:28:58;;;;;;;3.40;2.60;;;;;;;;;;5073365;28;20564;-79
2022/04/26 17:31:25;;;;;;;3.22;3.03;;;;;;;;;;5072879;28;20668;-79
2022/04/26 17:33:55;;;;;;;3.90;2.97;;;;;;;;;;5072896;28;20284;-79
2022/04/26 17:36:22;;;;;;;3.45;3.15;;;;;;;;;;5073813;28;20225;-78
2022/04/26 17:38:49;;;;;;;3.05;2.85;;;;;;;;;;5073271;28;20212;-78
2022/04/26 17:41:18;;;;;;;3.75;3.45;;;;;;;;;;5073160;28;20209;-79
2022/04/26 17:43:46;;;;;;;3.65;3.35;;;;;;;;;;5071934;28;20259;-78
2022/04/26 17:46:14;;;;;;;4.68;3.92;;;;;;;;;;5073209;28;20619;-79
2022/04/26 17:48:41;;;;;;;5.03;3.10;;;;;;;;;;5073483;28;20571;-80
2022/04/26 17:51:09;;;;;;;3.38;3.08;;;;;;;;;;5074159;28;20205;-78
2022/04/26 17:56:33;;;;;;;4.70;2.53;;;;;;;;;;5073325;28;20494;-78
2022/04/26 17:59:01;;;;;;;3.22;3.03;;;;;;;;;;5074652;28;20296;-78
2022/04/26 18:01:29;;;;;;;3.30;3.00;;;;;;;;;;5073727;28;20212;-78
2022/04/26 18:03:56;;;;;;;3.88;3.53;;;;;;;;;;5073169;28;20319;-79
2022/04/26 18:06:24;;;;;;;4.22;3.67;;;;;;;;;;5073500;28;20735;-80
2022/04/26 18:08:52;;;;;;;4.82;3.75;;;;;;;;;;5073789;28;20292;-79
2022/04/26 18:11:19;;;;;;;3.40;3.08;;;;;;;;;;5071224;28;20208;-79
2022/04/26 18:13:52;;;;;;;3.80;3.50;;;;;;;;;;5070742;28;20204;-78
2022/04/26 18:16:19;;;;;;;3.80;3.50;;;;;;;;;;5074621;28;20224;-78
2022/04/26 18:18:47;;;;;;;6.47;2.97;;;;;;;;;;5073638;28;20231;-79
2022/04/26 18:21:16;;;;;;;3.50;3.20;;;;;;;;;;5077666;28;20236;-78
2022/04/26 18:23:45;;;;;;;3.30;3.00;;;;;;;;;;5072320;28;20228;-78
2022/04/26 18:26:12;;;;;;;3.00;2.80;;;;;;;;;;5100173;22;20233;-79
2022/04/26 18:28:40;;;;;;;3.30;3.00;;;;;;;;;;5076433;28;20226;-79
2022/04/26 18:31:09;;;;;;;4.15;3.80;;;;;;;;;;5076789;28;20211;-80
2022/04/26 18:33:37;;;;;;;4.35;3.75;;;;;;;;;;5075330;28;20653;-79
2022/04/26 18:36:07;;;;;;;3.72;3.42;;;;;;;;;;5076539;28;20752;-79
2022/04/26 18:38:35;;;;;;;3.22;3.03;;;;;;;;;;5076751;28;20209;-79
2022/04/26 18:41:02;;;;;;;3.40;3.20;;;;;;;;;;5076327;28;20248;-79
2022/04/26 18:43:30;;;;;;;3.90;3.60;;;;;;;;;;5074936;28;20228;-80
2022/04/26 18:45:58;;;;;;;2.90;2.70;;;;;;;;;;5075977;28;20642;-79
2022/04/26 18:48:27;;;;;;;3.22;2.83;;;;;;;;;;5076635;28;20204;-79
2022/04/26 18:50:54;;;;;;;2.95;2.75;;;;;;;;;;5094026;28;20231;-80
2022/04/26 18:53:22;;;;;;;2.90;2.70;;;;;;;;;;5094422;28;20207;-79
2022/04/26 18:55:52;;;;;;;3.55;3.25;;;;;;;;;;5094856;28;20301;-79
2022/04/26 18:58:19;;;;;;;3.25;3.05;;;;;;;;;;5096239;28;20262;-80
2022/04/26 19:00:47;;;;;;;2.95;2.75;;;;;;;;;;5095459;28;20253;-79
2022/04/26 19:03:14;;;;;;;2.67;2.47;;;;;;;;;;5094459;28;20224;-79
2022/04/26 19:05:43;;;;;;;2.78;2.55;;;;;;;;;;5094199;28;20703;-79
2022/04/26 19:08:10;;;;;;;3.58;3.28;;;;;;;;;;5094948;28;20200;-79
2022/04/26 19:13:25;;;;;;;3.30;3.00;;;;;;;;;;5054429;28;20258;-79
2022/04/26 19:15:55;;;;;;;6.07;3.38;;;;;;;;;;5095004;28;20239;-79
2022/04/26 19:18:22;;;;;;;3.65;3.35;;;;;;;;;;5095078;28;20570;-79